Startpagina
METAR-TAF:

METAR-TAF

Vliegvelden :

Pskov, Rusland

breedte: 57-47-06N, lengte: 028-23-54E, hoogte: 47 m

Actueel weer

Dit bericht is 38 minuten geleden gemaakt, om 13:00 UTC
Wind 10 kt uit het zuidzuidoosten, variërend tussen het oostzuidoosten en het zuiden
Temperatuur -2°C
Vochtigheid 54%
Druk 1034 hPa

METAR: ULOO 221300Z 15005MPS 120V180 P5000 NSC M02/M10 Q1034 R19/090060 NOSIG RMK QFE771

Tijdstip: 16:38 (13:38 UTC)

Verwachting

Dit bericht is 2 uur en het 39 minuten geleden gemaakt, om 10:59 UTC
Verwachting geldig van 22 om 12 UTC tot 22 om 21 UTC
Wind 8 kt uit het zuidzuidoosten met uitschieters tot 17 kt
Zicht: 6000 m
Verspreide wolken op 1100 ft
Gebroken wolken op 2500 ft
Tijdelijke
van 22 om 12 UTC tot 22 om 18 UTC
Wind 14 kt uit het zuidzuidoosten met uitschieters tot 23 kt

TAF: ULOO 221059Z 2212/2221 15004G09MPS 6000 SCT011 BKN025 TEMPO 2212/2218 16007G12MPS

Waarnemingen en weersverwachtingen van meer dan 4000 vliegvelden (METAR en TAF).

De beschikbare stations zijn de gele en rode punten op de kaart.

Ga met uw muis naar het station om de naam te zien.

Klik dan om waarnemingen en weersverwachtingen te zien.

kaart wijzigen: klik op de groene knoppen met een zwart kruis om in te zoomen, op de groene knop met een streepje om uit te zoomen of op de groene pijlen voor aangrenzende kaarten.


METAR-TAF: